Time;durP1;ratioP1;P1;durP2;ratioP2;P2;SDS_P1;SDS_P2;PMS_P1;PMS_P2;Temp;Humidity;BMP_temperature;BMP_pressure;BME280_temperature;BME280_humidity;BME280_pressure;Samples;Min_cycle;Max_cycle;Signal;HPM_P1;HPM_P2
2021/09/25 00:00:34;;;;;;;15.97;8.53;;;13.90;93.60;;;;;;5033525;28;20455;-73
2021/09/25 00:03:02;;;;;;;17.00;9.00;;;13.80;93.70;;;;;;5025889;28;20428;-72
2021/09/25 00:05:29;;;;;;;18.67;9.63;;;13.80;93.90;;;;;;5031952;28;20421;-75
2021/09/25 00:07:56;;;;;;;14.73;9.13;;;13.80;93.90;;;;;;5031624;28;20546;-73
2021/09/25 00:10:23;;;;;;;19.40;10.47;;;13.80;94.00;;;;;;5034269;28;20427;-73
2021/09/25 00:12:49;;;;;;;18.07;9.77;;;13.80;94.20;;;;;;5033893;28;20500;-73
2021/09/25 00:15:16;;;;;;;16.30;10.07;;;13.70;94.10;;;;;;5032706;28;20420;-72
2021/09/25 00:17:42;;;;;;;18.20;9.87;;;13.70;94.20;;;;;;5032064;28;20451;-72
2021/09/25 00:20:09;;;;;;;21.57;11.67;;;13.70;94.10;;;;;;5033404;28;20531;-72
2021/09/25 00:22:35;;;;;;;16.00;10.03;;;13.60;93.60;;;;;;5027016;28;20436;-73
2021/09/25 00:25:01;;;;;;;14.07;9.07;;;13.60;93.90;;;;;;5027968;28;20875;-72
2021/09/25 00:27:28;;;;;;;19.40;9.73;;;13.70;93.90;;;;;;5032260;28;20507;-72
2021/09/25 00:29:54;;;;;;;16.23;8.77;;;13.70;93.80;;;;;;5029845;28;20495;-75
2021/09/25 00:32:19;;;;;;;19.37;9.60;;;13.70;94.00;;;;;;5031737;28;20425;-74
2021/09/25 00:34:45;;;;;;;16.40;9.13;;;13.70;94.10;;;;;;5030566;28;20220;-75
2021/09/25 00:37:11;;;;;;;17.33;9.63;;;13.70;94.10;;;;;;5032215;28;21054;-73
2021/09/25 00:39:37;;;;;;;14.30;8.60;;;13.70;94.10;;;;;;5031023;28;20190;-74
2021/09/25 00:42:03;;;;;;;13.90;8.73;;;13.70;94.10;;;;;;5030654;28;20280;-74
2021/09/25 00:44:28;;;;;;;17.63;9.73;;;13.60;94.10;;;;;;5032246;28;20197;-75
2021/09/25 00:46:56;;;;;;;15.63;9.50;;;13.60;94.30;;;;;;5032057;28;20487;-75
2021/09/25 00:49:23;;;;;;;22.73;10.37;;;13.60;93.60;;;;;;5030979;28;20181;-74
2021/09/25 00:51:49;;;;;;;15.80;9.40;;;13.50;93.50;;;;;;5032251;28;20456;-73
2021/09/25 00:54:16;;;;;;;13.97;8.83;;;13.40;93.90;;;;;;5031327;28;20523;-73
2021/09/25 00:56:44;;;;;;;16.23;9.90;;;13.40;94.00;;;;;;5025432;28;20519;-75
2021/09/25 00:59:11;;;;;;;15.83;9.10;;;13.30;94.10;;;;;;5027764;28;20435;-75
2021/09/25 01:01:38;;;;;;;16.03;9.03;;;13.30;94.30;;;;;;5031399;28;20424;-72
2021/09/25 01:04:04;;;;;;;13.73;8.67;;;13.30;94.40;;;;;;5031573;28;20559;-74
2021/09/25 01:06:30;;;;;;;16.50;9.10;;;13.30;94.30;;;;;;5023990;28;20468;-72
2021/09/25 01:08:55;;;;;;;16.27;9.00;;;13.30;94.30;;;;;;5031837;28;20189;-72
2021/09/25 01:11:22;;;;;;;14.00;8.53;;;13.30;94.20;;;;;;5031526;28;20265;-73
2021/09/25 01:13:48;;;;;;;11.93;7.73;;;13.30;94.30;;;;;;5030459;28;20272;-73
2021/09/25 01:16:14;;;;;;;16.03;9.20;;;13.30;94.30;;;;;;5028306;28;20520;-74
2021/09/25 01:18:40;;;;;;;14.57;8.30;;;13.30;94.10;;;;;;5031523;28;20462;-72
2021/09/25 01:21:08;;;;;;;15.43;8.67;;;13.20;94.30;;;;;;5024773;28;20194;-72
2021/09/25 01:23:35;;;;;;;15.00;8.60;;;13.30;94.30;;;;;;5030090;28;20193;-74
2021/09/25 01:26:01;;;;;;;12.03;8.37;;;13.30;93.90;;;;;;5025860;28;20510;-73
2021/09/25 01:28:28;;;;;;;14.23;8.77;;;13.20;93.80;;;;;;5030412;28;20444;-73
2021/09/25 01:30:55;;;;;;;15.90;8.90;;;13.20;93.70;;;;;;5025344;28;20865;-72
2021/09/25 01:33:30;;;;;;;17.67;8.77;;;13.20;93.50;;;;;;5029810;28;20428;-73
2021/09/25 01:35:56;;;;;;;14.33;8.10;;;13.10;93.30;;;;;;5026328;28;20435;-74
2021/09/25 01:38:22;;;;;;;22.80;8.67;;;13.10;93.30;;;;;;5027127;28;20526;-72
2021/09/25 01:40:48;;;;;;;20.47;8.83;;;13.10;93.30;;;;;;5030151;28;20424;-73
2021/09/25 01:43:15;;;;;;;15.00;8.00;;;13.10;93.20;;;;;;5030107;28;20919;-73
2021/09/25 01:45:42;;;;;;;14.90;8.17;;;13.10;93.40;;;;;;5030284;28;20472;-73
2021/09/25 01:48:09;;;;;;;18.33;8.50;;;13.10;93.30;;;;;;5030328;28;20439;-74
2021/09/25 01:50:35;;;;;;;16.20;9.17;;;13.10;93.30;;;;;;5029109;28;20786;-74
2021/09/25 01:53:01;;;;;;;25.90;8.67;;;13.00;93.40;;;;;;5031756;28;20424;-74
2021/09/25 01:55:27;;;;;;;17.10;8.90;;;13.00;93.60;;;;;;5032107;28;20554;-73
2021/09/25 01:57:53;;;;;;;14.70;8.13;;;13.00;93.50;;;;;;5032399;28;20443;-75
2021/09/25 02:00:21;;;;;;;13.50;8.17;;;12.90;93.60;;;;;;5029499;28;20193;-74
2021/09/25 02:02:47;;;;;;;16.27;8.43;;;13.00;93.70;;;;;;5030366;28;20284;-75
2021/09/25 02:05:15;;;;;;;15.83;8.30;;;13.00;93.80;;;;;;5030029;28;20438;-73
2021/09/25 02:07:41;;;;;;;10.77;6.87;;;13.00;94.00;;;;;;5029690;28;20476;-76
2021/09/25 02:10:08;;;;;;;12.20;7.33;;;13.10;93.90;;;;;;5028537;28;20848;-74
2021/09/25 02:12:34;;;;;;;12.13;7.20;;;13.10;93.90;;;;;;5030032;28;20431;-74
2021/09/25 02:15:00;;;;;;;13.50;8.07;;;13.10;93.90;;;;;;5028289;28;20776;-74
2021/09/25 02:17:25;;;;;;;13.67;8.37;;;13.10;93.80;;;;;;5029819;28;20208;-73
2021/09/25 02:19:51;;;;;;;15.77;8.50;;;13.10;93.90;;;;;;5029312;28;20204;-72
2021/09/25 02:22:17;;;;;;;11.87;7.13;;;13.10;93.80;;;;;;5029759;28;20208;-72
2021/09/25 02:24:43;;;;;;;13.90;7.23;;;13.10;93.70;;;;;;5028441;28;20189;-72
2021/09/25 02:27:09;;;;;;;13.80;8.47;;;13.10;93.70;;;;;;5030315;28;20482;-75
2021/09/25 02:29:35;;;;;;;13.97;8.50;;;13.10;93.60;;;;;;5039985;28;20420;-74
2021/09/25 02:32:01;;;;;;;14.30;8.40;;;13.00;93.70;;;;;;5032143;28;20465;-74
2021/09/25 02:34:27;;;;;;;14.73;8.63;;;13.00;93.80;;;;;;5031768;28;20419;-76
2021/09/25 02:36:52;;;;;;;12.33;7.87;;;13.00;93.80;;;;;;5031847;28;20470;-74
2021/09/25 02:39:18;;;;;;;13.50;8.23;;;12.90;93.90;;;;;;5051272;28;20185;-72
2021/09/25 02:41:44;;;;;;;15.30;8.80;;;12.90;94.00;;;;;;5048756;28;20232;-72
2021/09/25 02:44:10;;;;;;;12.73;8.03;;;12.90;93.90;;;;;;5050348;28;20200;-73
2021/09/25 02:46:35;;;;;;;14.50;7.77;;;12.90;93.70;;;;;;5049538;28;20540;-73
2021/09/25 02:49:01;;;;;;;13.27;7.30;;;12.90;93.70;;;;;;5049149;28;20186;-73
2021/09/25 02:51:27;;;;;;;11.83;7.23;;;12.90;93.70;;;;;;5049145;28;20188;-73
2021/09/25 02:53:52;;;;;;;12.33;8.00;;;12.90;93.50;;;;;;5049248;28;20189;-74
2021/09/25 02:56:18;;;;;;;15.30;8.00;;;12.90;93.50;;;;;;5040174;28;20205;-75
2021/09/25 02:58:44;;;;;;;15.23;7.90;;;12.90;93.20;;;;;;5029182;28;20270;-74
2021/09/25 03:01:10;;;;;;;15.37;8.33;;;12.90;93.20;;;;;;5029320;28;20194;-73
2021/09/25 03:03:35;;;;;;;13.30;8.30;;;12.90;93.10;;;;;;5024173;28;20209;-75
2021/09/25 03:06:01;;;;;;;13.60;8.43;;;12.90;93.00;;;;;;5027675;28;20514;-75
2021/09/25 03:08:27;;;;;;;13.13;7.60;;;12.80;93.00;;;;;;5030420;28;20209;-75
2021/09/25 03:10:52;;;;;;;11.10;7.03;;;12.80;93.30;;;;;;5029052;28;20193;-74
2021/09/25 03:13:18;;;;;;;15.40;7.83;;;12.80;93.30;;;;;;5033444;28;20189;-75
2021/09/25 03:15:44;;;;;;;14.87;8.67;;;12.80;93.40;;;;;;5034040;28;20189;-74
2021/09/25 03:18:09;;;;;;;10.93;7.67;;;12.70;93.50;;;;;;5035775;28;20271;-74
2021/09/25 03:20:36;;;;;;;13.33;7.13;;;12.70;93.70;;;;;;5035730;28;20188;-74
2021/09/25 03:23:01;;;;;;;21.57;8.20;;;12.60;93.90;;;;;;5036181;28;20224;-73
2021/09/25 03:25:27;;;;;;;16.80;9.10;;;12.60;93.80;;;;;;5035804;28;20420;-73
2021/09/25 03:27:56;;;;;;;13.10;7.40;;;12.70;93.80;;;;;;5041934;28;20224;-71
2021/09/25 03:30:23;;;;;;;13.80;7.87;;;12.70;93.60;;;;;;5051454;28;20185;-71
2021/09/25 03:32:50;;;;;;;19.23;8.90;;;12.70;93.30;;;;;;5048439;28;20475;-71
2021/09/25 03:35:16;;;;;;;11.83;7.40;;;12.60;93.50;;;;;;5048203;28;20514;-74
2021/09/25 03:37:42;;;;;;;14.40;8.60;;;12.50;93.80;;;;;;5052917;28;20459;-71
2021/09/25 03:40:09;;;;;;;13.90;7.80;;;12.50;93.90;;;;;;5053417;28;20244;-73
2021/09/25 03:42:35;;;;;;;11.67;7.57;;;12.40;93.90;;;;;;5052752;28;20466;-71
2021/09/25 03:45:01;;;;;;;14.50;8.83;;;12.50;94.00;;;;;;5053720;28;20424;-72
2021/09/25 03:47:26;;;;;;;13.30;8.50;;;12.50;94.00;;;;;;5054474;28;20486;-74
2021/09/25 03:49:52;;;;;;;15.10;7.70;;;12.40;94.00;;;;;;5052903;28;20189;-71
2021/09/25 03:52:18;;;;;;;10.20;7.10;;;12.40;94.10;;;;;;5047411;28;20260;-74
2021/09/25 03:54:43;;;;;;;15.73;7.90;;;12.30;94.20;;;;;;5030870;28;20603;-72
2021/09/25 03:57:09;;;;;;;14.93;8.17;;;12.30;94.20;;;;;;5030987;28;20259;-74
2021/09/25 03:59:35;;;;;;;13.33;8.67;;;12.40;94.20;;;;;;5031690;28;20239;-73
2021/09/25 04:02:01;;;;;;;15.70;8.00;;;12.40;94.10;;;;;;5032385;28;20296;-73
2021/09/25 04:04:26;;;;;;;14.80;8.43;;;12.30;94.20;;;;;;5030510;28;20185;-73
2021/09/25 04:06:52;;;;;;;15.40;8.37;;;12.40;94.20;;;;;;5031868;28;20248;-73
2021/09/25 04:09:18;;;;;;;13.70;7.43;;;12.30;94.10;;;;;;5030378;28;20196;-76
2021/09/25 04:11:48;;;;;;;12.93;7.83;;;12.20;94.50;;;;;;5028883;28;20192;-75
2021/09/25 04:14:19;;;;;;;15.67;8.57;;;12.20;94.80;;;;;;5031050;28;20189;-75
2021/09/25 04:16:45;;;;;;;16.50;7.90;;;12.20;94.80;;;;;;5031637;28;20453;-72
2021/09/25 04:19:12;;;;;;;15.80;8.97;;;12.20;94.70;;;;;;5031183;28;20428;-72
2021/09/25 04:21:37;;;;;;;17.60;8.40;;;12.20;94.70;;;;;;5031327;28;20426;-74
2021/09/25 04:24:03;;;;;;;17.70;7.97;;;12.20;94.60;;;;;;5031094;28;20523;-74
2021/09/25 04:26:29;;;;;;;15.20;8.37;;;12.20;94.60;;;;;;5023327;28;20209;-74
2021/09/25 04:28:57;;;;;;;14.93;8.10;;;12.20;94.70;;;;;;5030749;28;20777;-73
2021/09/25 04:31:23;;;;;;;14.77;7.90;;;12.20;94.60;;;;;;5030858;28;20185;-73
2021/09/25 04:33:49;;;;;;;14.37;8.20;;;12.20;94.60;;;;;;5031182;28;20511;-72
2021/09/25 04:36:14;;;;;;;16.37;8.60;;;12.10;94.60;;;;;;5031272;28;20581;-73
2021/09/25 04:38:40;;;;;;;15.80;8.67;;;12.10;94.70;;;;;;5030916;28;20232;-74
2021/09/25 04:41:06;;;;;;;16.63;8.73;;;12.00;94.70;;;;;;5031256;28;20188;-74
2021/09/25 04:43:32;;;;;;;16.27;8.40;;;12.10;94.70;;;;;;5027285;28;20193;-73
2021/09/25 04:45:58;;;;;;;16.00;8.43;;;12.00;94.60;;;;;;5027125;28;21341;-74
2021/09/25 04:48:24;;;;;;;16.83;9.20;;;11.90;94.80;;;;;;5026114;28;20451;-75
2021/09/25 04:50:50;;;;;;;18.73;9.97;;;11.90;94.80;;;;;;5027678;28;20193;-74
2021/09/25 04:53:15;;;;;;;15.50;8.77;;;11.90;94.90;;;;;;5024036;28;20274;-74
2021/09/25 04:55:42;;;;;;;15.57;8.27;;;11.80;94.80;;;;;;5025967;28;20190;-73
2021/09/25 04:58:09;;;;;;;18.40;8.63;;;11.80;94.90;;;;;;5028353;28;20534;-73
2021/09/25 05:00:35;;;;;;;18.13;8.63;;;11.80;94.90;;;;;;5030341;28;20934;-74
2021/09/25 05:03:01;;;;;;;16.60;9.20;;;11.90;94.90;;;;;;5026241;28;20421;-76
2021/09/25 05:05:27;;;;;;;21.20;10.23;;;11.90;94.90;;;;;;5030106;28;20435;-74
2021/09/25 05:07:53;;;;;;;15.33;8.63;;;11.80;95.00;;;;;;5030663;28;20467;-75
2021/09/25 05:10:19;;;;;;;14.20;8.33;;;11.80;95.10;;;;;;5030372;28;20185;-72
2021/09/25 05:12:48;;;;;;;14.47;8.47;;;11.80;95.20;;;;;;5028035;28;20192;-73
2021/09/25 05:15:14;;;;;;;14.60;7.73;;;11.80;95.40;;;;;;5027950;28;20428;-73
2021/09/25 05:17:40;;;;;;;14.73;8.33;;;11.90;95.50;;;;;;5031967;28;20529;-74
2021/09/25 05:20:08;;;;;;;18.23;8.47;;;11.90;95.60;;;;;;5028310;28;20913;-74
2021/09/25 05:22:34;;;;;;;12.73;8.23;;;11.80;95.60;;;;;;5031304;28;20435;-73
2021/09/25 05:25:00;;;;;;;14.30;8.07;;;11.80;95.80;;;;;;5030808;28;20459;-73
2021/09/25 05:27:26;;;;;;;15.50;8.40;;;11.80;96.00;;;;;;5030852;28;20898;-76
2021/09/25 05:29:52;;;;;;;14.53;8.10;;;11.80;96.00;;;;;;5031080;28;20186;-73
2021/09/25 05:32:18;;;;;;;15.70;8.30;;;11.80;96.10;;;;;;5030917;28;20506;-75
2021/09/25 05:34:43;;;;;;;12.63;7.87;;;11.80;95.90;;;;;;5030001;28;20510;-76
2021/09/25 05:37:12;;;;;;;11.50;7.10;;;11.80;95.70;;;;;;5030224;28;20240;-75
2021/09/25 05:39:38;;;;;;;13.13;7.77;;;11.80;95.50;;;;;;5029719;28;20798;-75
2021/09/25 05:42:04;;;;;;;15.43;7.57;;;11.80;95.50;;;;;;5029877;28;20428;-75
2021/09/25 05:44:30;;;;;;;16.00;8.83;;;11.90;95.60;;;;;;5029807;28;20420;-74
2021/09/25 05:46:56;;;;;;;16.80;9.07;;;12.00;95.70;;;;;;5029989;28;21055;-73
2021/09/25 05:49:22;;;;;;;15.47;7.83;;;12.00;95.70;;;;;;5029916;28;20833;-74
2021/09/25 05:51:48;;;;;;;19.13;8.37;;;12.10;95.70;;;;;;5029666;28;20549;-74
2021/09/25 05:54:13;;;;;;;19.07;9.43;;;12.10;94.40;;;;;;5029513;28;20236;-74
2021/09/25 05:56:39;;;;;;;20.73;9.77;;;12.20;94.00;;;;;;5023708;28;20238;-74
2021/09/25 05:59:05;;;;;;;18.53;10.23;;;12.10;93.80;;;;;;5030725;28;20200;-74
2021/09/25 06:01:31;;;;;;;16.03;7.90;;;12.10;94.10;;;;;;5029984;28;20188;-73
2021/09/25 06:03:57;;;;;;;17.73;8.37;;;12.10;94.00;;;;;;5026604;28;20460;-73
2021/09/25 06:06:22;;;;;;;13.67;7.70;;;12.10;94.00;;;;;;5030405;28;20839;-73
2021/09/25 06:08:48;;;;;;;20.20;9.23;;;12.10;93.80;;;;;;5030177;28;20201;-73
2021/09/25 06:11:14;;;;;;;18.77;9.63;;;12.10;94.00;;;;;;5030586;28;20185;-74
2021/09/25 06:13:40;;;;;;;13.03;7.87;;;12.10;94.00;;;;;;5030300;28;20242;-74
2021/09/25 06:16:05;;;;;;;16.40;9.43;;;12.10;94.10;;;;;;5030544;28;20648;-73
2021/09/25 06:18:31;;;;;;;18.07;8.93;;;12.10;94.10;;;;;;5030152;28;20961;-73
2021/09/25 06:20:57;;;;;;;15.47;8.27;;;12.10;94.00;;;;;;5030239;28;20193;-74
2021/09/25 06:23:22;;;;;;;14.33;8.70;;;12.20;93.70;;;;;;5030148;28;20601;-72
2021/09/25 06:25:48;;;;;;;15.47;8.50;;;12.30;93.60;;;;;;5027115;28;20189;-73
2021/09/25 06:28:14;;;;;;;12.40;7.97;;;12.30;93.50;;;;;;5030096;28;20208;-76
2021/09/25 06:30:42;;;;;;;27.47;8.37;;;12.30;93.40;;;;;;5025820;28;20185;-73
2021/09/25 06:33:09;;;;;;;19.00;9.37;;;12.30;93.50;;;;;;5028999;28;20188;-74
2021/09/25 06:35:35;;;;;;;13.53;8.53;;;12.40;93.50;;;;;;5024758;28;20499;-75
2021/09/25 06:38:01;;;;;;;13.77;8.10;;;12.50;93.40;;;;;;5030056;28;20578;-73
2021/09/25 06:40:27;;;;;;;15.67;8.67;;;12.50;93.40;;;;;;5029120;28;20258;-75
2021/09/25 06:42:52;;;;;;;13.87;7.97;;;12.60;93.00;;;;;;5030211;28;20185;-75
2021/09/25 06:45:18;;;;;;;16.33;9.47;;;12.60;92.90;;;;;;5029664;28;20923;-74
2021/09/25 06:47:44;;;;;;;16.30;9.00;;;12.60;92.90;;;;;;5032374;28;20221;-74
2021/09/25 06:50:10;;;;;;;15.53;8.17;;;12.70;92.90;;;;;;5031604;28;20648;-73
2021/09/25 06:52:36;;;;;;;16.00;9.07;;;12.60;92.90;;;;;;5035990;28;20185;-74
2021/09/25 06:55:03;;;;;;;17.67;8.50;;;12.60;92.90;;;;;;5032979;28;20477;-73
2021/09/25 06:57:30;;;;;;;15.77;8.67;;;12.70;92.80;;;;;;5033948;28;20284;-73
2021/09/25 06:59:56;;;;;;;18.13;8.60;;;12.80;92.60;;;;;;5033173;28;20439;-75
2021/09/25 07:02:22;;;;;;;18.80;9.23;;;12.90;92.40;;;;;;5033583;28;20845;-73
2021/09/25 07:04:48;;;;;;;16.30;8.43;;;12.90;92.40;;;;;;5033562;28;20459;-74
2021/09/25 07:07:14;;;;;;;14.40;7.67;;;12.90;92.20;;;;;;5033284;28;20473;-75
2021/09/25 07:09:41;;;;;;;12.37;7.57;;;13.00;92.30;;;;;;5032618;28;20481;-73
2021/09/25 07:12:10;;;;;;;16.13;8.37;;;13.00;92.20;;;;;;5033440;28;20459;-75
2021/09/25 07:14:37;;;;;;;14.07;8.70;;;13.10;92.00;;;;;;5033252;28;20478;-74
2021/09/25 07:17:03;;;;;;;16.60;9.10;;;13.10;91.80;;;;;;5033308;28;20490;-73
2021/09/25 07:19:29;;;;;;;16.23;8.43;;;13.10;91.90;;;;;;5032660;28;20796;-74
2021/09/25 07:21:55;;;;;;;15.93;9.13;;;13.20;91.90;;;;;;5033210;28;20427;-74
2021/09/25 07:24:21;;;;;;;17.63;9.10;;;13.30;91.80;;;;;;5033023;28;20428;-74
2021/09/25 07:26:46;;;;;;;14.50;8.17;;;13.40;91.60;;;;;;5033778;28;20463;-73
2021/09/25 07:29:12;;;;;;;17.60;9.13;;;13.40;91.40;;;;;;5032812;28;20918;-73
2021/09/25 07:31:38;;;;;;;15.07;9.10;;;13.40;91.50;;;;;;5033324;28;20213;-73
2021/09/25 07:34:04;;;;;;;14.13;9.17;;;13.50;91.40;;;;;;5033097;28;20185;-74
2021/09/25 07:36:30;;;;;;;15.90;8.80;;;13.60;91.20;;;;;;5031536;28;20207;-73
2021/09/25 07:38:56;;;;;;;14.13;9.07;;;13.70;90.90;;;;;;5032224;28;20458;-73
2021/09/25 07:41:23;;;;;;;17.10;8.90;;;13.70;90.80;;;;;;5032175;28;20424;-72
2021/09/25 07:43:50;;;;;;;14.57;8.13;;;13.70;90.90;;;;;;5027904;28;20438;-73
2021/09/25 07:46:16;;;;;;;20.73;8.97;;;13.80;90.80;;;;;;5032796;28;20862;-73
2021/09/25 07:48:42;;;;;;;16.87;9.70;;;13.90;90.60;;;;;;5025141;28;20526;-73
2021/09/25 07:51:08;;;;;;;20.07;9.73;;;14.00;90.40;;;;;;5030763;28;20428;-74
2021/09/25 07:53:34;;;;;;;16.60;9.40;;;14.00;90.40;;;;;;5032506;28;20419;-74
2021/09/25 07:56:00;;;;;;;17.40;9.90;;;14.10;90.30;;;;;;5030917;28;20198;-74
2021/09/25 07:58:25;;;;;;;15.20;10.00;;;14.20;90.00;;;;;;5031329;28;20208;-73
2021/09/25 08:00:51;;;;;;;16.27;9.57;;;14.30;89.60;;;;;;5027537;28;20181;-72
2021/09/25 08:03:18;;;;;;;16.03;8.07;;;14.40;89.30;;;;;;5039796;28;20185;-73
2021/09/25 08:05:44;;;;;;;17.10;10.03;;;14.50;88.90;;;;;;5041574;28;20217;-75
2021/09/25 08:08:09;;;;;;;14.37;8.73;;;14.60;88.60;;;;;;5032349;28;20491;-75
2021/09/25 08:10:35;;;;;;;15.27;8.70;;;14.70;88.60;;;;;;5024085;28;20439;-76
2021/09/25 08:13:01;;;;;;;19.30;9.50;;;14.80;88.30;;;;;;5024340;28;20194;-77
2021/09/25 08:15:27;;;;;;;15.77;8.50;;;15.00;87.80;;;;;;5030642;28;20463;-76
2021/09/25 08:17:53;;;;;;;18.20;9.27;;;15.10;87.40;;;;;;5029696;28;20494;-77
2021/09/25 08:20:21;;;;;;;20.63;11.03;;;15.20;87.00;;;;;;5029298;28;20459;-78
2021/09/25 08:22:47;;;;;;;22.13;11.80;;;15.30;86.80;;;;;;5026227;28;20190;-76
2021/09/25 08:25:13;;;;;;;43.80;24.00;;;15.40;86.30;;;;;;5029411;28;20532;-77
2021/09/25 08:27:40;;;;;;;21.00;12.90;;;15.50;86.00;;;;;;5023993;28;20483;-76
2021/09/25 08:30:08;;;;;;;17.47;10.90;;;15.60;85.90;;;;;;5032796;28;20422;-76
2021/09/25 08:32:34;;;;;;;15.77;8.60;;;15.60;85.50;;;;;;5030643;28;20968;-77
2021/09/25 08:35:00;;;;;;;19.63;10.70;;;15.80;85.50;;;;;;5031604;28;20473;-76
2021/09/25 08:37:25;;;;;;;17.10;9.67;;;16.00;84.40;;;;;;5029266;28;20471;-76
2021/09/25 08:39:51;;;;;;;15.23;8.90;;;16.10;83.80;;;;;;5028198;28;20495;-76
2021/09/25 08:42:18;;;;;;;14.20;9.50;;;16.20;83.60;;;;;;5028165;28;20197;-76
2021/09/25 08:44:49;;;;;;;19.20;9.80;;;16.30;83.00;;;;;;5025320;28;20193;-75
2021/09/25 08:47:17;;;;;;;17.43;9.90;;;16.40;82.70;;;;;;5029516;28;20574;-77
2021/09/25 08:49:43;;;;;;;30.80;17.17;;;16.50;82.80;;;;;;5028564;28;20490;-77
2021/09/25 08:52:09;;;;;;;26.17;14.63;;;16.60;82.40;;;;;;5030284;28;20431;-77
2021/09/25 08:54:35;;;;;;;26.43;13.37;;;16.80;81.70;;;;;;5030263;28;20513;-77
2021/09/25 08:57:05;;;;;;;13.10;8.20;;;16.90;81.40;;;;;;5030084;28;20459;-76
2021/09/25 08:59:31;;;;;;;14.23;9.03;;;17.10;81.10;;;;;;5021644;28;20631;-76
2021/09/25 09:02:15;;;;;;;17.63;10.10;;;17.20;80.30;;;;;;5028981;28;20589;-77
2021/09/25 09:04:46;;;;;;;14.43;9.10;;;17.30;80.00;;;;;;5024381;28;20254;-78
2021/09/25 09:07:17;;;;;;;16.33;8.27;;;17.40;80.00;;;;;;5030236;28;20479;-76
2021/09/25 09:09:44;;;;;;;15.73;8.90;;;17.50;79.70;;;;;;5029255;28;20412;-76
2021/09/25 09:12:11;;;;;;;16.40;8.33;;;17.70;79.50;;;;;;5031173;28;20424;-75
2021/09/25 09:14:42;;;;;;;12.40;8.10;;;17.80;79.20;;;;;;5029772;28;20428;-77
2021/09/25 09:17:08;;;;;;;13.50;8.30;;;18.00;78.40;;;;;;5030912;28;20509;-76
2021/09/25 09:19:37;;;;;;;11.23;7.73;;;18.10;78.10;;;;;;5028006;28;20921;-76
2021/09/25 09:22:05;;;;;;;14.07;8.67;;;18.20;78.00;;;;;;5026364;28;20199;-77
2021/09/25 09:24:42;;;;;;;12.73;7.47;;;18.30;77.60;;;;;;5024222;28;20481;-76
2021/09/25 09:27:25;;;;;;;13.40;9.80;;;18.30;77.80;;;;;;5028937;28;20473;-77
2021/09/25 09:30:15;;;;;;;29.03;15.70;;;18.50;77.10;;;;;;5031667;28;20437;-76
2021/09/25 09:32:45;;;;;;;16.97;9.20;;;18.60;76.40;;;;;;5031244;28;20497;-78
2021/09/25 09:35:19;;;;;;;14.90;8.80;;;18.70;75.90;;;;;;5031038;28;20564;-76
2021/09/25 09:37:55;;;;;;;21.03;10.23;;;18.80;75.40;;;;;;5029875;28;20472;-77
2021/09/25 09:40:21;;;;;;;16.67;8.50;;;18.80;75.40;;;;;;5029915;28;20839;-75
2021/09/25 09:42:49;;;;;;;14.57;9.17;;;18.90;75.40;;;;;;5029883;28;20456;-77
2021/09/25 09:45:31;;;;;;;14.20;7.40;;;18.90;75.10;;;;;;5030020;28;20439;-77
2021/09/25 09:47:59;;;;;;;12.00;7.90;;;19.00;75.40;;;;;;5030316;28;20489;-76
2021/09/25 09:50:25;;;;;;;16.10;8.67;;;19.10;74.30;;;;;;5022749;28;20458;-77
2021/09/25 09:52:51;;;;;;;13.93;7.83;;;19.20;74.30;;;;;;5033312;28;20463;-76
2021/09/25 09:55:25;;;;;;;10.20;7.20;;;19.40;73.70;;;;;;5031941;28;20217;-77
2021/09/25 09:58:05;;;;;;;10.77;7.60;;;19.50;73.70;;;;;;5030869;28;20508;-77
2021/09/25 10:00:35;;;;;;;15.60;7.23;;;19.50;73.20;;;;;;5027796;28;20548;-78
2021/09/25 10:03:02;;;;;;;13.10;7.50;;;19.60;73.50;;;;;;5037001;28;20432;-78
2021/09/25 10:05:28;;;;;;;10.97;8.00;;;19.70;72.90;;;;;;5029707;28;20527;-79
2021/09/25 10:07:54;;;;;;;12.63;7.10;;;19.80;73.20;;;;;;5031341;28;20495;-76
2021/09/25 10:10:22;;;;;;;21.40;8.50;;;19.90;73.20;;;;;;5030008;28;20463;-76
2021/09/25 10:12:48;;;;;;;14.67;8.33;;;20.10;72.60;;;;;;5029239;28;21168;-79
2021/09/25 10:15:15;;;;;;;14.50;7.20;;;20.30;72.00;;;;;;5028814;28;20444;-77
2021/09/25 10:17:45;;;;;;;12.67;7.83;;;20.30;71.30;;;;;;5029398;28;20502;-78
2021/09/25 10:20:11;;;;;;;12.13;8.47;;;20.40;71.60;;;;;;5024730;28;20437;-78
2021/09/25 10:22:38;;;;;;;12.60;6.50;;;20.50;71.60;;;;;;5022753;28;20413;-76
2021/09/25 10:25:11;;;;;;;12.00;6.40;;;20.60;70.50;;;;;;5027290;28;20547;-76
2021/09/25 10:27:47;;;;;;;11.07;5.87;;;20.80;70.10;;;;;;5023210;28;20477;-74
2021/09/25 10:30:14;;;;;;;8.43;6.20;;;21.00;68.90;;;;;;5028533;28;20426;-73
2021/09/25 10:32:50;;;;;;;9.90;6.30;;;21.30;67.70;;;;;;5028710;28;20943;-73
2021/09/25 10:35:34;;;;;;;15.90;6.93;;;21.90;66.70;;;;;;5027807;28;20448;-73
2021/09/25 10:38:02;;;;;;;10.40;6.60;;;22.60;65.70;;;;;;5030867;28;20967;-73
2021/09/25 10:40:37;;;;;;;9.83;6.10;;;23.30;64.10;;;;;;5029943;28;20433;-72
2021/09/25 10:43:20;;;;;;;8.23;6.00;;;24.10;61.20;;;;;;5039790;28;20436;-74
2021/09/25 10:45:51;;;;;;;9.43;5.83;;;24.80;57.40;;;;;;5031302;28;20512;-73
2021/09/25 10:48:24;;;;;;;9.00;5.90;;;25.20;56.20;;;;;;5030195;28;20446;-75
2021/09/25 10:51:11;;;;;;;7.10;5.10;;;25.70;56.10;;;;;;5030367;28;20446;-76
2021/09/25 10:53:45;;;;;;;8.67;6.50;;;26.20;55.00;;;;;;5030338;28;20407;-75
2021/09/25 10:56:44;;;;;;;7.90;5.70;;;26.30;53.70;;;;;;5030524;28;20419;-71
2021/09/25 10:59:10;;;;;;;8.20;6.10;;;26.60;53.70;;;;;;5029974;28;20423;-74
2021/09/25 11:01:37;;;;;;;8.80;5.80;;;26.90;52.20;;;;;;5031920;28;20424;-73
2021/09/25 11:04:22;;;;;;;7.87;5.80;;;27.40;51.40;;;;;;5031465;28;20616;-73
2021/09/25 11:06:55;;;;;;;9.90;5.57;;;27.90;50.50;;;;;;5025487;28;21048;-75
2021/09/25 11:09:31;;;;;;;9.10;6.00;;;28.20;49.00;;;;;;5030857;28;20416;-73
2021/09/25 11:12:12;;;;;;;9.50;5.93;;;28.40;48.60;;;;;;5032170;28;20516;-74
2021/09/25 11:14:47;;;;;;;7.93;5.10;;;28.40;48.50;;;;;;5031125;28;20498;-75
2021/09/25 11:17:19;;;;;;;8.50;5.53;;;28.40;48.10;;;;;;5029783;28;20463;-73
2021/09/25 11:19:56;;;;;;;8.80;5.50;;;28.30;48.50;;;;;;5024651;28;20459;-75
2021/09/25 11:22:35;;;;;;;7.43;5.20;;;28.40;48.90;;;;;;5037140;28;20427;-72
2021/09/25 11:25:04;;;;;;;8.73;6.17;;;28.60;48.90;;;;;;5040713;28;20455;-73
2021/09/25 11:27:31;;;;;;;10.20;6.87;;;28.90;48.60;;;;;;5032566;28;20468;-72
2021/09/25 11:30:01;;;;;;;7.80;5.77;;;29.20;48.50;;;;;;5029923;28;20463;-75
2021/09/25 11:32:31;;;;;;;8.10;6.23;;;29.40;47.40;;;;;;5031221;28;20421;-75
2021/09/25 11:34:59;;;;;;;8.80;5.90;;;29.70;46.20;;;;;;5032358;28;20436;-73
2021/09/25 11:37:26;;;;;;;6.43;5.70;;;29.80;46.70;;;;;;5032870;28;20448;-74
2021/09/25 11:39:53;;;;;;;10.70;5.57;;;29.90;44.60;;;;;;5032092;28;20416;-72
2021/09/25 11:42:28;;;;;;;7.23;4.87;;;29.60;46.10;;;;;;5033012;28;20791;-74
2021/09/25 11:45:08;;;;;;;6.70;5.50;;;29.60;45.80;;;;;;5031474;28;20427;-74
2021/09/25 11:47:48;;;;;;;7.20;5.43;;;29.50;45.90;;;;;;5034039;28;20463;-73
2021/09/25 11:50:19;;;;;;;8.67;5.93;;;29.50;45.90;;;;;;5027317;28;20478;-73
2021/09/25 11:52:53;;;;;;;10.37;6.13;;;29.20;46.60;;;;;;5034421;28;20417;-73
2021/09/25 11:55:20;;;;;;;8.30;4.93;;;29.30;47.00;;;;;;5035452;28;20416;-76
2021/09/25 11:57:52;;;;;;;8.93;5.33;;;28.80;46.50;;;;;;5036166;28;20448;-70
2021/09/25 12:00:32;;;;;;;9.43;5.37;;;28.70;47.00;;;;;;5034579;28;20432;-75
2021/09/25 12:02:59;;;;;;;8.20;5.40;;;28.80;47.50;;;;;;5034837;28;20444;-74
2021/09/25 12:05:40;;;;;;;11.37;6.87;;;29.10;46.20;;;;;;5036644;28;20422;-74
2021/09/25 12:08:09;;;;;;;8.97;6.73;;;29.20;46.10;;;;;;5035313;28;20474;-74
2021/09/25 12:10:43;;;;;;;6.40;5.13;;;29.30;46.50;;;;;;5035185;28;20903;-74
2021/09/25 12:13:17;;;;;;;8.10;5.80;;;29.40;46.70;;;;;;5032363;28;20503;-73
2021/09/25 12:15:45;;;;;;;8.60;5.10;;;29.70;44.90;;;;;;5030418;28;20420;-73
2021/09/25 12:18:15;;;;;;;8.97;5.07;;;29.70;45.50;;;;;;5030451;28;21092;-75
2021/09/25 12:21:05;;;;;;;6.77;5.10;;;29.90;44.20;;;;;;5030985;28;20517;-73
2021/09/25 12:23:44;;;;;;;5.33;4.30;;;30.20;44.30;;;;;;5017051;28;20416;-75
2021/09/25 12:26:16;;;;;;;6.63;4.60;;;30.20;42.30;;;;;;5032033;28;20416;-74
2021/09/25 12:28:55;;;;;;;7.13;5.10;;;30.30;42.00;;;;;;5032730;28;20485;-73
2021/09/25 12:31:24;;;;;;;6.53;4.80;;;30.40;41.90;;;;;;5032515;28;20518;-74
2021/09/25 12:34:16;;;;;;;5.30;4.33;;;30.60;42.00;;;;;;5031236;28;20770;-75
2021/09/25 12:36:45;;;;;;;7.50;4.47;;;30.40;41.80;;;;;;5027451;28;20455;-73
2021/09/25 12:39:12;;;;;;;8.80;4.90;;;30.00;41.40;;;;;;5029138;28;20536;-73
2021/09/25 12:41:44;;;;;;;8.67;4.60;;;29.70;42.60;;;;;;5032107;28;20420;-73